sensor_id;sensor_type;location;lat;lon;timestamp;P1;durP1;ratioP1;P2;durP2;ratioP2
7773;SDS011;3931;42.260;23.116;2022-11-15T00:01:06;29.20;;;16.23;;
7773;SDS011;3931;42.260;23.116;2022-11-15T00:03:33;32.50;;;15.83;;
7773;SDS011;3931;42.260;23.116;2022-11-15T00:06:01;35.33;;;18.33;;
7773;SDS011;3931;42.260;23.116;2022-11-15T00:08:28;41.60;;;20.47;;
7773;SDS011;3931;42.260;23.116;2022-11-15T00:10:55;37.17;;;18.20;;
7773;SDS011;3931;42.260;23.116;2022-11-15T00:13:22;35.43;;;18.50;;
7773;SDS011;3931;42.260;23.116;2022-11-15T00:15:48;46.50;;;20.97;;
7773;SDS011;3931;42.260;23.116;2022-11-15T00:18:15;33.83;;;18.93;;
7773;SDS011;3931;42.260;23.116;2022-11-15T00:20:42;33.93;;;18.57;;
7773;SDS011;3931;42.260;23.116;2022-11-15T00:23:08;40.00;;;19.57;;
7773;SDS011;3931;42.260;23.116;2022-11-15T00:25:34;32.93;;;18.23;;
7773;SDS011;3931;42.260;23.116;2022-11-15T00:28:01;30.10;;;17.23;;
7773;SDS011;3931;42.260;23.116;2022-11-15T00:30:27;27.20;;;14.80;;
7773;SDS011;3931;42.260;23.116;2022-11-15T00:32:54;30.40;;;16.30;;
7773;SDS011;3931;42.260;23.116;2022-11-15T00:35:20;28.77;;;16.30;;
7773;SDS011;3931;42.260;23.116;2022-11-15T00:37:47;34.90;;;17.17;;
7773;SDS011;3931;42.260;23.116;2022-11-15T00:40:13;28.87;;;17.20;;
7773;SDS011;3931;42.260;23.116;2022-11-15T00:42:40;28.70;;;16.73;;
7773;SDS011;3931;42.260;23.116;2022-11-15T00:45:07;35.63;;;17.50;;
7773;SDS011;3931;42.260;23.116;2022-11-15T00:47:34;34.00;;;18.57;;
7773;SDS011;3931;42.260;23.116;2022-11-15T00:50:00;33.80;;;17.77;;
7773;SDS011;3931;42.260;23.116;2022-11-15T00:52:26;28.10;;;16.60;;
7773;SDS011;3931;42.260;23.116;2022-11-15T00:54:52;28.63;;;16.07;;
7773;SDS011;3931;42.260;23.116;2022-11-15T00:57:18;29.10;;;17.63;;
7773;SDS011;3931;42.260;23.116;2022-11-15T00:59:44;37.50;;;17.97;;
7773;SDS011;3931;42.260;23.116;2022-11-15T01:02:11;27.13;;;16.70;;
7773;SDS011;3931;42.260;23.116;2022-11-15T01:04:37;30.00;;;17.00;;
7773;SDS011;3931;42.260;23.116;2022-11-15T01:07:04;29.90;;;15.97;;
7773;SDS011;3931;42.260;23.116;2022-11-15T01:09:30;25.50;;;14.87;;
7773;SDS011;3931;42.260;23.116;2022-11-15T01:11:56;29.80;;;16.30;;
7773;SDS011;3931;42.260;23.116;2022-11-15T01:14:22;42.10;;;18.20;;
7773;SDS011;3931;42.260;23.116;2022-11-15T01:16:48;33.90;;;18.33;;
7773;SDS011;3931;42.260;23.116;2022-11-15T01:19:15;41.20;;;18.13;;
7773;SDS011;3931;42.260;23.116;2022-11-15T01:21:41;30.67;;;15.20;;
7773;SDS011;3931;42.260;23.116;2022-11-15T01:24:07;30.80;;;16.53;;
7773;SDS011;3931;42.260;23.116;2022-11-15T01:26:38;27.57;;;15.00;;
7773;SDS011;3931;42.260;23.116;2022-11-15T01:29:04;28.10;;;14.70;;
7773;SDS011;3931;42.260;23.116;2022-11-15T01:31:30;30.90;;;14.50;;
7773;SDS011;3931;42.260;23.116;2022-11-15T01:33:56;25.10;;;14.97;;
7773;SDS011;3931;42.260;23.116;2022-11-15T01:36:23;29.13;;;16.03;;
7773;SDS011;3931;42.260;23.116;2022-11-15T01:38:52;26.10;;;14.73;;
7773;SDS011;3931;42.260;23.116;2022-11-15T01:41:20;26.03;;;15.00;;
7773;SDS011;3931;42.260;23.116;2022-11-15T01:43:48;26.17;;;15.13;;
7773;SDS011;3931;42.260;23.116;2022-11-15T01:46:21;29.30;;;14.60;;
7773;SDS011;3931;42.260;23.116;2022-11-15T01:48:52;32.93;;;15.27;;
7773;SDS011;3931;42.260;23.116;2022-11-15T01:51:21;42.77;;;16.40;;
7773;SDS011;3931;42.260;23.116;2022-11-15T01:53:52;33.77;;;16.93;;
7773;SDS011;3931;42.260;23.116;2022-11-15T01:56:21;33.17;;;16.90;;
7773;SDS011;3931;42.260;23.116;2022-11-15T01:58:51;35.67;;;17.67;;
7773;SDS011;3931;42.260;23.116;2022-11-15T02:01:21;38.90;;;19.07;;
7773;SDS011;3931;42.260;23.116;2022-11-15T02:03:49;35.20;;;17.37;;
7773;SDS011;3931;42.260;23.116;2022-11-15T02:06:20;36.97;;;16.73;;
7773;SDS011;3931;42.260;23.116;2022-11-15T02:08:48;27.37;;;14.90;;
7773;SDS011;3931;42.260;23.116;2022-11-15T02:11:15;30.00;;;15.27;;
7773;SDS011;3931;42.260;23.116;2022-11-15T02:13:41;26.53;;;15.43;;
7773;SDS011;3931;42.260;23.116;2022-11-15T02:16:09;24.37;;;14.40;;
7773;SDS011;3931;42.260;23.116;2022-11-15T02:18:46;37.10;;;15.63;;
7773;SDS011;3931;42.260;23.116;2022-11-15T02:21:19;27.80;;;14.50;;
7773;SDS011;3931;42.260;23.116;2022-11-15T02:24:07;29.60;;;14.10;;
7773;SDS011;3931;42.260;23.116;2022-11-15T02:27:03;26.47;;;13.60;;
7773;SDS011;3931;42.260;23.116;2022-11-15T02:30:02;30.17;;;14.50;;
7773;SDS011;3931;42.260;23.116;2022-11-15T02:32:40;28.33;;;14.57;;
7773;SDS011;3931;42.260;23.116;2022-11-15T02:35:11;32.50;;;14.53;;
7773;SDS011;3931;42.260;23.116;2022-11-15T02:37:47;24.33;;;14.10;;
7773;SDS011;3931;42.260;23.116;2022-11-15T02:40:23;26.20;;;14.00;;
7773;SDS011;3931;42.260;23.116;2022-11-15T02:43:00;21.73;;;14.13;;
7773;SDS011;3931;42.260;23.116;2022-11-15T02:45:53;23.93;;;13.60;;
7773;SDS011;3931;42.260;23.116;2022-11-15T02:48:26;25.60;;;14.30;;
7773;SDS011;3931;42.260;23.116;2022-11-15T02:50:52;29.13;;;13.60;;
7773;SDS011;3931;42.260;23.116;2022-11-15T02:53:20;19.93;;;12.23;;
7773;SDS011;3931;42.260;23.116;2022-11-15T02:55:49;29.80;;;15.03;;
7773;SDS011;3931;42.260;23.116;2022-11-15T02:58:25;26.70;;;14.40;;
7773;SDS011;3931;42.260;23.116;2022-11-15T03:01:12;26.97;;;13.97;;
7773;SDS011;3931;42.260;23.116;2022-11-15T03:03:49;22.90;;;13.93;;
7773;SDS011;3931;42.260;23.116;2022-11-15T03:06:28;27.07;;;13.83;;
7773;SDS011;3931;42.260;23.116;2022-11-15T03:09:02;28.80;;;15.90;;
7773;SDS011;3931;42.260;23.116;2022-11-15T03:11:31;32.50;;;15.70;;
7773;SDS011;3931;42.260;23.116;2022-11-15T03:14:01;29.00;;;17.20;;
7773;SDS011;3931;42.260;23.116;2022-11-15T03:16:35;30.77;;;16.00;;
7773;SDS011;3931;42.260;23.116;2022-11-15T03:19:06;35.83;;;17.80;;
7773;SDS011;3931;42.260;23.116;2022-11-15T03:21:36;29.80;;;16.03;;
7773;SDS011;3931;42.260;23.116;2022-11-15T03:24:05;30.53;;;16.33;;
7773;SDS011;3931;42.260;23.116;2022-11-15T03:26:33;31.07;;;16.40;;
7773;SDS011;3931;42.260;23.116;2022-11-15T03:29:03;30.20;;;15.87;;
7773;SDS011;3931;42.260;23.116;2022-11-15T03:31:35;31.57;;;16.17;;
7773;SDS011;3931;42.260;23.116;2022-11-15T03:34:16;33.00;;;16.10;;
7773;SDS011;3931;42.260;23.116;2022-11-15T03:36:47;32.50;;;16.07;;
7773;SDS011;3931;42.260;23.116;2022-11-15T03:39:16;27.17;;;14.83;;
7773;SDS011;3931;42.260;23.116;2022-11-15T03:41:43;30.17;;;15.57;;
7773;SDS011;3931;42.260;23.116;2022-11-15T03:44:15;27.00;;;14.30;;
7773;SDS011;3931;42.260;23.116;2022-11-15T03:46:47;23.57;;;14.30;;
7773;SDS011;3931;42.260;23.116;2022-11-15T03:49:22;22.60;;;13.80;;
7773;SDS011;3931;42.260;23.116;2022-11-15T03:51:52;26.97;;;15.40;;
7773;SDS011;3931;42.260;23.116;2022-11-15T03:54:18;27.30;;;14.03;;
7773;SDS011;3931;42.260;23.116;2022-11-15T03:56:44;25.03;;;14.43;;
7773;SDS011;3931;42.260;23.116;2022-11-15T03:59:10;28.97;;;13.97;;
7773;SDS011;3931;42.260;23.116;2022-11-15T04:01:37;29.13;;;14.97;;
7773;SDS011;3931;42.260;23.116;2022-11-15T04:04:04;26.10;;;14.70;;
7773;SDS011;3931;42.260;23.116;2022-11-15T04:06:30;28.63;;;16.40;;
7773;SDS011;3931;42.260;23.116;2022-11-15T04:08:56;33.03;;;16.50;;
7773;SDS011;3931;42.260;23.116;2022-11-15T04:11:22;29.73;;;16.30;;
7773;SDS011;3931;42.260;23.116;2022-11-15T04:13:48;28.73;;;17.40;;
7773;SDS011;3931;42.260;23.116;2022-11-15T04:16:14;27.47;;;14.73;;
7773;SDS011;3931;42.260;23.116;2022-11-15T04:18:40;31.43;;;15.37;;
7773;SDS011;3931;42.260;23.116;2022-11-15T04:21:07;27.07;;;14.70;;
7773;SDS011;3931;42.260;23.116;2022-11-15T04:23:52;40.87;;;20.30;;
7773;SDS011;3931;42.260;23.116;2022-11-15T04:26:36;67.77;;;32.33;;
7773;SDS011;3931;42.260;23.116;2022-11-15T04:29:02;53.57;;;32.53;;
7773;SDS011;3931;42.260;23.116;2022-11-15T04:31:46;49.53;;;29.37;;
7773;SDS011;3931;42.260;23.116;2022-11-15T04:34:12;56.93;;;30.03;;
7773;SDS011;3931;42.260;23.116;2022-11-15T04:36:39;60.20;;;29.00;;
7773;SDS011;3931;42.260;23.116;2022-11-15T04:39:23;45.87;;;24.17;;
7773;SDS011;3931;42.260;23.116;2022-11-15T04:41:49;43.20;;;23.60;;
7773;SDS011;3931;42.260;23.116;2022-11-15T04:44:15;34.13;;;19.77;;
7773;SDS011;3931;42.260;23.116;2022-11-15T04:46:41;40.50;;;19.83;;
7773;SDS011;3931;42.260;23.116;2022-11-15T04:49:08;34.13;;;19.43;;
7773;SDS011;3931;42.260;23.116;2022-11-15T04:51:34;32.87;;;19.77;;
7773;SDS011;3931;42.260;23.116;2022-11-15T04:54:00;37.20;;;19.40;;
7773;SDS011;3931;42.260;23.116;2022-11-15T04:56:27;40.93;;;24.17;;
7773;SDS011;3931;42.260;23.116;2022-11-15T04:58:53;54.63;;;24.90;;
7773;SDS011;3931;42.260;23.116;2022-11-15T05:01:19;38.43;;;22.27;;
7773;SDS011;3931;42.260;23.116;2022-11-15T05:03:45;37.10;;;20.73;;
7773;SDS011;3931;42.260;23.116;2022-11-15T05:06:29;32.00;;;18.77;;
7773;SDS011;3931;42.260;23.116;2022-11-15T05:08:56;41.30;;;20.43;;
7773;SDS011;3931;42.260;23.116;2022-11-15T05:11:23;47.23;;;26.97;;
7773;SDS011;3931;42.260;23.116;2022-11-15T05:13:49;46.33;;;27.73;;
7773;SDS011;3931;42.260;23.116;2022-11-15T05:16:16;37.40;;;18.50;;
7773;SDS011;3931;42.260;23.116;2022-11-15T05:18:42;33.90;;;19.27;;
7773;SDS011;3931;42.260;23.116;2022-11-15T05:21:09;33.30;;;18.13;;
7773;SDS011;3931;42.260;23.116;2022-11-15T05:23:37;25.53;;;16.80;;
7773;SDS011;3931;42.260;23.116;2022-11-15T05:26:05;34.70;;;19.07;;
7773;SDS011;3931;42.260;23.116;2022-11-15T05:28:33;50.33;;;24.10;;
7773;SDS011;3931;42.260;23.116;2022-11-15T05:31:00;60.87;;;27.30;;
7773;SDS011;3931;42.260;23.116;2022-11-15T05:33:27;58.83;;;26.20;;
7773;SDS011;3931;42.260;23.116;2022-11-15T05:35:54;60.17;;;26.00;;
7773;SDS011;3931;42.260;23.116;2022-11-15T05:38:26;64.77;;;27.67;;
7773;SDS011;3931;42.260;23.116;2022-11-15T05:40:52;66.03;;;25.90;;
7773;SDS011;3931;42.260;23.116;2022-11-15T05:43:19;69.50;;;28.23;;
7773;SDS011;3931;42.260;23.116;2022-11-15T05:45:45;63.37;;;27.17;;
7773;SDS011;3931;42.260;23.116;2022-11-15T05:48:12;55.10;;;25.90;;
7773;SDS011;3931;42.260;23.116;2022-11-15T05:50:39;59.10;;;22.30;;
7773;SDS011;3931;42.260;23.116;2022-11-15T05:53:09;37.70;;;18.43;;
7773;SDS011;3931;42.260;23.116;2022-11-15T05:55:38;28.13;;;16.43;;
7773;SDS011;3931;42.260;23.116;2022-11-15T05:58:05;25.70;;;16.43;;
7773;SDS011;3931;42.260;23.116;2022-11-15T06:00:31;29.40;;;16.17;;
7773;SDS011;3931;42.260;23.116;2022-11-15T06:02:58;26.20;;;15.50;;
7773;SDS011;3931;42.260;23.116;2022-11-15T06:05:24;32.63;;;15.50;;
7773;SDS011;3931;42.260;23.116;2022-11-15T06:07:50;34.60;;;16.17;;
7773;SDS011;3931;42.260;23.116;2022-11-15T06:10:17;31.40;;;17.03;;
7773;SDS011;3931;42.260;23.116;2022-11-15T06:12:43;45.97;;;20.97;;
7773;SDS011;3931;42.260;23.116;2022-11-15T06:15:09;50.20;;;22.20;;
7773;SDS011;3931;42.260;23.116;2022-11-15T06:17:35;57.93;;;27.43;;
7773;SDS011;3931;42.260;23.116;2022-11-15T06:20:02;55.30;;;26.30;;
7773;SDS011;3931;42.260;23.116;2022-11-15T06:22:28;53.60;;;24.80;;
7773;SDS011;3931;42.260;23.116;2022-11-15T06:24:55;66.77;;;24.23;;
7773;SDS011;3931;42.260;23.116;2022-11-15T06:27:21;50.70;;;21.60;;
7773;SDS011;3931;42.260;23.116;2022-11-15T06:29:47;34.17;;;18.43;;
7773;SDS011;3931;42.260;23.116;2022-11-15T06:32:13;40.33;;;18.47;;
7773;SDS011;3931;42.260;23.116;2022-11-15T06:34:39;37.90;;;18.20;;
7773;SDS011;3931;42.260;23.116;2022-11-15T06:37:06;44.53;;;17.60;;
7773;SDS011;3931;42.260;23.116;2022-11-15T06:39:32;40.47;;;15.50;;
7773;SDS011;3931;42.260;23.116;2022-11-15T06:41:58;26.53;;;15.03;;
7773;SDS011;3931;42.260;23.116;2022-11-15T06:44:24;32.00;;;17.23;;
7773;SDS011;3931;42.260;23.116;2022-11-15T06:46:50;32.57;;;16.50;;
7773;SDS011;3931;42.260;23.116;2022-11-15T06:49:16;35.93;;;17.67;;
7773;SDS011;3931;42.260;23.116;2022-11-15T06:51:42;45.40;;;20.40;;
7773;SDS011;3931;42.260;23.116;2022-11-15T06:54:09;42.00;;;21.03;;
7773;SDS011;3931;42.260;23.116;2022-11-15T06:56:35;48.57;;;22.50;;
7773;SDS011;3931;42.260;23.116;2022-11-15T06:59:01;52.47;;;22.40;;
7773;SDS011;3931;42.260;23.116;2022-11-15T07:01:27;45.77;;;21.60;;
7773;SDS011;3931;42.260;23.116;2022-11-15T07:03:53;51.03;;;23.70;;
7773;SDS011;3931;42.260;23.116;2022-11-15T07:06:19;44.07;;;21.17;;
7773;SDS011;3931;42.260;23.116;2022-11-15T07:08:45;41.87;;;18.83;;
7773;SDS011;3931;42.260;23.116;2022-11-15T07:11:12;43.50;;;20.43;;
7773;SDS011;3931;42.260;23.116;2022-11-15T07:13:38;50.57;;;25.33;;
7773;SDS011;3931;42.260;23.116;2022-11-15T07:16:05;57.17;;;27.40;;
7773;SDS011;3931;42.260;23.116;2022-11-15T07:18:33;49.30;;;26.30;;
7773;SDS011;3931;42.260;23.116;2022-11-15T07:21:00;45.67;;;25.90;;
7773;SDS011;3931;42.260;23.116;2022-11-15T07:23:27;47.83;;;24.30;;
7773;SDS011;3931;42.260;23.116;2022-11-15T07:25:55;46.10;;;23.20;;
7773;SDS011;3931;42.260;23.116;2022-11-15T07:28:22;46.83;;;22.87;;
7773;SDS011;3931;42.260;23.116;2022-11-15T07:30:48;46.77;;;23.33;;
7773;SDS011;3931;42.260;23.116;2022-11-15T07:33:15;44.50;;;24.57;;
7773;SDS011;3931;42.260;23.116;2022-11-15T07:35:41;68.83;;;26.40;;
7773;SDS011;3931;42.260;23.116;2022-11-15T07:38:07;43.70;;;24.60;;
7773;SDS011;3931;42.260;23.116;2022-11-15T07:40:34;44.13;;;26.40;;
7773;SDS011;3931;42.260;23.116;2022-11-15T07:43:00;49.43;;;27.53;;
7773;SDS011;3931;42.260;23.116;2022-11-15T07:45:27;44.60;;;25.30;;
7773;SDS011;3931;42.260;23.116;2022-11-15T07:47:54;60.50;;;31.83;;
7773;SDS011;3931;42.260;23.116;2022-11-15T07:50:21;48.20;;;25.47;;
7773;SDS011;3931;42.260;23.116;2022-11-15T07:52:47;64.73;;;24.57;;
7773;SDS011;3931;42.260;23.116;2022-11-15T07:55:18;40.20;;;18.10;;
7773;SDS011;3931;42.260;23.116;2022-11-15T07:57:44;41.60;;;20.07;;
7773;SDS011;3931;42.260;23.116;2022-11-15T08:00:11;52.13;;;20.77;;
7773;SDS011;3931;42.260;23.116;2022-11-15T08:02:38;37.20;;;21.60;;
7773;SDS011;3931;42.260;23.116;2022-11-15T08:05:04;52.87;;;19.50;;
7773;SDS011;3931;42.260;23.116;2022-11-15T08:07:31;35.93;;;18.60;;
7773;SDS011;3931;42.260;23.116;2022-11-15T08:09:57;59.93;;;19.80;;
7773;SDS011;3931;42.260;23.116;2022-11-15T08:12:26;43.10;;;19.73;;
7773;SDS011;3931;42.260;23.116;2022-11-15T08:14:52;36.77;;;17.37;;
7773;SDS011;3931;42.260;23.116;2022-11-15T08:17:18;46.70;;;17.50;;
7773;SDS011;3931;42.260;23.116;2022-11-15T08:19:45;30.87;;;16.60;;
7773;SDS011;3931;42.260;23.116;2022-11-15T08:22:11;32.60;;;18.67;;
7773;SDS011;3931;42.260;23.116;2022-11-15T08:24:37;27.23;;;16.60;;
7773;SDS011;3931;42.260;23.116;2022-11-15T08:27:03;30.80;;;15.50;;
7773;SDS011;3931;42.260;23.116;2022-11-15T08:29:29;34.40;;;16.53;;
7773;SDS011;3931;42.260;23.116;2022-11-15T08:31:56;26.23;;;14.33;;
7773;SDS011;3931;42.260;23.116;2022-11-15T08:34:22;24.10;;;14.77;;
7773;SDS011;3931;42.260;23.116;2022-11-15T08:36:48;32.50;;;15.53;;
7773;SDS011;3931;42.260;23.116;2022-11-15T08:39:15;29.10;;;15.37;;
7773;SDS011;3931;42.260;23.116;2022-11-15T08:41:41;24.77;;;16.20;;
7773;SDS011;3931;42.260;23.116;2022-11-15T08:44:07;23.97;;;14.10;;
7773;SDS011;3931;42.260;23.116;2022-11-15T08:46:33;31.37;;;16.70;;
7773;SDS011;3931;42.260;23.116;2022-11-15T08:48:59;25.20;;;14.00;;
7773;SDS011;3931;42.260;23.116;2022-11-15T08:51:25;28.60;;;15.13;;
7773;SDS011;3931;42.260;23.116;2022-11-15T08:53:52;25.20;;;15.80;;
7773;SDS011;3931;42.260;23.116;2022-11-15T08:56:18;26.90;;;15.27;;
7773;SDS011;3931;42.260;23.116;2022-11-15T08:58:44;32.10;;;18.77;;
7773;SDS011;3931;42.260;23.116;2022-11-15T09:01:16;32.30;;;17.73;;
7773;SDS011;3931;42.260;23.116;2022-11-15T09:03:43;34.30;;;17.93;;
7773;SDS011;3931;42.260;23.116;2022-11-15T09:06:09;27.90;;;16.50;;
7773;SDS011;3931;42.260;23.116;2022-11-15T09:08:35;33.40;;;18.60;;
7773;SDS011;3931;42.260;23.116;2022-11-15T09:11:03;28.70;;;16.60;;
7773;SDS011;3931;42.260;23.116;2022-11-15T09:13:29;23.70;;;14.40;;
7773;SDS011;3931;42.260;23.116;2022-11-15T09:15:57;28.40;;;16.53;;
7773;SDS011;3931;42.260;23.116;2022-11-15T09:18:23;27.20;;;15.70;;
7773;SDS011;3931;42.260;23.116;2022-11-15T09:20:49;23.87;;;15.97;;
7773;SDS011;3931;42.260;23.116;2022-11-15T09:23:15;27.53;;;15.50;;
7773;SDS011;3931;42.260;23.116;2022-11-15T09:25:42;34.97;;;21.77;;
7773;SDS011;3931;42.260;23.116;2022-11-15T09:28:08;34.73;;;17.20;;
7773;SDS011;3931;42.260;23.116;2022-11-15T09:30:34;29.43;;;15.80;;
7773;SDS011;3931;42.260;23.116;2022-11-15T09:33:05;30.50;;;16.60;;
7773;SDS011;3931;42.260;23.116;2022-11-15T09:35:32;42.23;;;18.07;;
7773;SDS011;3931;42.260;23.116;2022-11-15T09:37:58;25.67;;;15.73;;
7773;SDS011;3931;42.260;23.116;2022-11-15T09:40:24;36.77;;;15.73;;
7773;SDS011;3931;42.260;23.116;2022-11-15T09:42:54;25.40;;;16.00;;
7773;SDS011;3931;42.260;23.116;2022-11-15T09:45:34;28.83;;;17.60;;
7773;SDS011;3931;42.260;23.116;2022-11-15T09:48:19;28.13;;;16.63;;
7773;SDS011;3931;42.260;23.116;2022-11-15T09:51:03;27.40;;;16.77;;
7773;SDS011;3931;42.260;23.116;2022-11-15T09:53:31;33.10;;;18.27;;
7773;SDS011;3931;42.260;23.116;2022-11-15T09:56:03;25.83;;;16.00;;
7773;SDS011;3931;42.260;23.116;2022-11-15T09:58:42;35.47;;;18.87;;
7773;SDS011;3931;42.260;23.116;2022-11-15T10:01:17;34.40;;;16.70;;
7773;SDS011;3931;42.260;23.116;2022-11-15T10:03:54;28.67;;;16.60;;
7773;SDS011;3931;42.260;23.116;2022-11-15T10:06:23;35.30;;;18.43;;
7773;SDS011;3931;42.260;23.116;2022-11-15T10:08:52;33.80;;;18.20;;
7773;SDS011;3931;42.260;23.116;2022-11-15T10:11:24;28.40;;;16.50;;
7773;SDS011;3931;42.260;23.116;2022-11-15T10:13:54;37.20;;;17.40;;
7773;SDS011;3931;42.260;23.116;2022-11-15T10:16:30;28.60;;;16.23;;
7773;SDS011;3931;42.260;23.116;2022-11-15T10:19:34;26.93;;;15.00;;
7773;SDS011;3931;42.260;23.116;2022-11-15T10:22:12;26.70;;;16.87;;
7773;SDS011;3931;42.260;23.116;2022-11-15T10:24:46;36.10;;;17.73;;
7773;SDS011;3931;42.260;23.116;2022-11-15T10:27:13;30.10;;;18.67;;
7773;SDS011;3931;42.260;23.116;2022-11-15T10:29:44;26.13;;;16.03;;
7773;SDS011;3931;42.260;23.116;2022-11-15T10:32:13;30.03;;;15.47;;
7773;SDS011;3931;42.260;23.116;2022-11-15T10:34:40;30.07;;;16.87;;
7773;SDS011;3931;42.260;23.116;2022-11-15T10:37:07;29.83;;;14.60;;
7773;SDS011;3931;42.260;23.116;2022-11-15T10:39:33;29.17;;;14.70;;
7773;SDS011;3931;42.260;23.116;2022-11-15T10:42:02;27.33;;;14.97;;
7773;SDS011;3931;42.260;23.116;2022-11-15T10:44:41;28.60;;;16.37;;
7773;SDS011;3931;42.260;23.116;2022-11-15T10:50:01;29.43;;;14.07;;
7773;SDS011;3931;42.260;23.116;2022-11-15T10:52:31;25.70;;;14.03;;
7773;SDS011;3931;42.260;23.116;2022-11-15T10:55:01;28.43;;;15.30;;
7773;SDS011;3931;42.260;23.116;2022-11-15T10:57:31;31.93;;;16.40;;
7773;SDS011;3931;42.260;23.116;2022-11-15T11:00:03;29.23;;;14.73;;
7773;SDS011;3931;42.260;23.116;2022-11-15T11:02:31;23.17;;;14.37;;
7773;SDS011;3931;42.260;23.116;2022-11-15T11:05:00;26.90;;;14.80;;
7773;SDS011;3931;42.260;23.116;2022-11-15T11:07:30;33.80;;;17.47;;
7773;SDS011;3931;42.260;23.116;2022-11-15T11:09:59;31.17;;;16.27;;
7773;SDS011;3931;42.260;23.116;2022-11-15T11:12:27;32.33;;;16.77;;
7773;SDS011;3931;42.260;23.116;2022-11-15T11:14:56;31.80;;;16.60;;
7773;SDS011;3931;42.260;23.116;2022-11-15T11:17:26;31.60;;;17.27;;
7773;SDS011;3931;42.260;23.116;2022-11-15T11:20:12;34.87;;;16.53;;
7773;SDS011;3931;42.260;23.116;2022-11-15T11:22:50;54.13;;;24.67;;
7773;SDS011;3931;42.260;23.116;2022-11-15T11:25:28;35.07;;;17.20;;
7773;SDS011;3931;42.260;23.116;2022-11-15T11:28:05;43.03;;;18.67;;
7773;SDS011;3931;42.260;23.116;2022-11-15T11:30:47;32.83;;;15.33;;
7773;SDS011;3931;42.260;23.116;2022-11-15T11:33:20;32.60;;;15.80;;
7773;SDS011;3931;42.260;23.116;2022-11-15T11:35:53;34.07;;;16.90;;
7773;SDS011;3931;42.260;23.116;2022-11-15T11:38:33;33.80;;;17.60;;
7773;SDS011;3931;42.260;23.116;2022-11-15T11:41:08;34.77;;;19.30;;
7773;SDS011;3931;42.260;23.116;2022-11-15T11:43:42;38.67;;;20.43;;
7773;SDS011;3931;42.260;23.116;2022-11-15T11:46:22;26.87;;;17.27;;
7773;SDS011;3931;42.260;23.116;2022-11-15T11:49:04;29.47;;;17.03;;
7773;SDS011;3931;42.260;23.116;2022-11-15T11:51:36;42.37;;;18.40;;
7773;SDS011;3931;42.260;23.116;2022-11-15T11:54:12;28.43;;;17.30;;
7773;SDS011;3931;42.260;23.116;2022-11-15T11:56:43;37.10;;;16.27;;
7773;SDS011;3931;42.260;23.116;2022-11-15T11:59:12;32.67;;;16.40;;
7773;SDS011;3931;42.260;23.116;2022-11-15T12:01:45;31.67;;;16.17;;
7773;SDS011;3931;42.260;23.116;2022-11-15T12:04:13;26.77;;;16.03;;
7773;SDS011;3931;42.260;23.116;2022-11-15T12:06:46;25.20;;;15.07;;
7773;SDS011;3931;42.260;23.116;2022-11-15T12:09:17;31.77;;;17.80;;
7773;SDS011;3931;42.260;23.116;2022-11-15T12:11:50;30.97;;;16.23;;
7773;SDS011;3931;42.260;23.116;2022-11-15T12:14:32;23.20;;;15.23;;
7773;SDS011;3931;42.260;23.116;2022-11-15T12:17:01;29.07;;;17.00;;
7773;SDS011;3931;42.260;23.116;2022-11-15T12:19:28;25.10;;;14.87;;
7773;SDS011;3931;42.260;23.116;2022-11-15T12:21:56;27.83;;;18.30;;
7773;SDS011;3931;42.260;23.116;2022-11-15T12:24:28;28.67;;;15.73;;
7773;SDS011;3931;42.260;23.116;2022-11-15T12:27:01;38.30;;;16.97;;
7773;SDS011;3931;42.260;23.116;2022-11-15T12:29:32;27.70;;;17.33;;
7773;SDS011;3931;42.260;23.116;2022-11-15T12:32:03;36.40;;;16.70;;
7773;SDS011;3931;42.260;23.116;2022-11-15T12:34:40;30.30;;;16.20;;
7773;SDS011;3931;42.260;23.116;2022-11-15T12:40:22;25.33;;;16.30;;
7773;SDS011;3931;42.260;23.116;2022-11-15T12:43:04;26.73;;;16.40;;
7773;SDS011;3931;42.260;23.116;2022-11-15T12:45:51;37.27;;;15.10;;
7773;SDS011;3931;42.260;23.116;2022-11-15T12:51:13;27.83;;;16.53;;
7773;SDS011;3931;42.260;23.116;2022-11-15T12:53:39;22.83;;;15.20;;
7773;SDS011;3931;42.260;23.116;2022-11-15T12:56:15;22.97;;;15.70;;
7773;SDS011;3931;42.260;23.116;2022-11-15T12:58:47;30.37;;;17.33;;
7773;SDS011;3931;42.260;23.116;2022-11-15T13:04:25;30.23;;;15.90;;
7773;SDS011;3931;42.260;23.116;2022-11-15T13:06:53;29.23;;;18.30;;
7773;SDS011;3931;42.260;23.116;2022-11-15T13:15:31;23.93;;;16.20;;
7773;SDS011;3931;42.260;23.116;2022-11-15T13:20:53;24.40;;;14.47;;
7773;SDS011;3931;42.260;23.116;2022-11-15T13:23:20;23.53;;;15.77;;
7773;SDS011;3931;42.260;23.116;2022-11-15T13:26:00;26.87;;;14.40;;
7773;SDS011;3931;42.260;23.116;2022-11-15T13:28:39;24.90;;;16.23;;
7773;SDS011;3931;42.260;23.116;2022-11-15T13:31:19;32.53;;;16.17;;
7773;SDS011;3931;42.260;23.116;2022-11-15T13:33:51;23.80;;;15.73;;
7773;SDS011;3931;42.260;23.116;2022-11-15T13:36:19;25.60;;;19.67;;
7773;SDS011;3931;42.260;23.116;2022-11-15T13:38:53;28.30;;;17.60;;
7773;SDS011;3931;42.260;23.116;2022-11-15T13:41:22;34.90;;;18.07;;
7773;SDS011;3931;42.260;23.116;2022-11-15T13:43:50;36.67;;;19.20;;
7773;SDS011;3931;42.260;23.116;2022-11-15T13:46:19;32.37;;;16.87;;
7773;SDS011;3931;42.260;23.116;2022-11-15T13:48:47;30.30;;;17.30;;
7773;SDS011;3931;42.260;23.116;2022-11-15T13:51:18;32.47;;;17.53;;
7773;SDS011;3931;42.260;23.116;2022-11-15T13:53:50;23.90;;;16.37;;
7773;SDS011;3931;42.260;23.116;2022-11-15T13:56:21;33.27;;;17.20;;
7773;SDS011;3931;42.260;23.116;2022-11-15T13:58:48;31.83;;;17.13;;
7773;SDS011;3931;42.260;23.116;2022-11-15T14:01:16;32.23;;;19.00;;
7773;SDS011;3931;42.260;23.116;2022-11-15T14:03:47;27.70;;;17.37;;
7773;SDS011;3931;42.260;23.116;2022-11-15T14:06:16;29.97;;;17.30;;
7773;SDS011;3931;42.260;23.116;2022-11-15T14:08:57;29.03;;;17.33;;
7773;SDS011;3931;42.260;23.116;2022-11-15T14:11:25;34.93;;;17.23;;
7773;SDS011;3931;42.260;23.116;2022-11-15T14:14:04;31.23;;;17.50;;
7773;SDS011;3931;42.260;23.116;2022-11-15T14:16:39;29.63;;;18.00;;
7773;SDS011;3931;42.260;23.116;2022-11-15T14:19:08;35.53;;;21.97;;
7773;SDS011;3931;42.260;23.116;2022-11-15T14:21:36;33.43;;;20.30;;
7773;SDS011;3931;42.260;23.116;2022-11-15T14:24:15;52.50;;;27.40;;
7773;SDS011;3931;42.260;23.116;2022-11-15T14:26:41;61.30;;;30.10;;
7773;SDS011;3931;42.260;23.116;2022-11-15T14:29:23;65.40;;;36.80;;
7773;SDS011;3931;42.260;23.116;2022-11-15T14:31:51;57.73;;;28.20;;
7773;SDS011;3931;42.260;23.116;2022-11-15T14:34:17;55.50;;;31.47;;
7773;SDS011;3931;42.260;23.116;2022-11-15T14:36:44;42.23;;;23.83;;
7773;SDS011;3931;42.260;23.116;2022-11-15T14:39:10;49.53;;;23.93;;
7773;SDS011;3931;42.260;23.116;2022-11-15T14:41:36;70.40;;;29.80;;
7773;SDS011;3931;42.260;23.116;2022-11-15T14:44:03;79.33;;;32.47;;
7773;SDS011;3931;42.260;23.116;2022-11-15T14:46:29;93.50;;;38.03;;
7773;SDS011;3931;42.260;23.116;2022-11-15T14:48:56;82.50;;;38.03;;
7773;SDS011;3931;42.260;23.116;2022-11-15T14:51:23;82.70;;;38.17;;
7773;SDS011;3931;42.260;23.116;2022-11-15T14:53:49;98.80;;;37.87;;
7773;SDS011;3931;42.260;23.116;2022-11-15T14:56:16;118.90;;;44.07;;
7773;SDS011;3931;42.260;23.116;2022-11-15T14:58:42;119.10;;;45.77;;
7773;SDS011;3931;42.260;23.116;2022-11-15T15:01:10;122.87;;;44.90;;
7773;SDS011;3931;42.260;23.116;2022-11-15T15:03:39;131.37;;;47.47;;
7773;SDS011;3931;42.260;23.116;2022-11-15T15:06:06;124.77;;;45.53;;
7773;SDS011;3931;42.260;23.116;2022-11-15T15:08:34;101.03;;;45.67;;